Time;durP1;ratioP1;P1;durP2;ratioP2;P2;SDS_P1;SDS_P2;PMS_P1;PMS_P2;Temp;Humidity;BMP_temperature;BMP_pressure;BME280_temperature;BME280_humidity;BME280_pressure;Samples;Min_cycle;Max_cycle;Signal;HPM_P1;HPM_P2
2021/06/27 00:00:56;;;;;;;10.70;8.82;;;;;;;20.54;64.31;99803.94;2222168;40;20034;-86
2021/06/27 00:02:27;;;;;;;10.07;8.15;;;;;;;20.54;64.36;99803.94;2222209;40;20040;-85
2021/06/27 00:03:58;;;;;;;11.88;8.48;;;;;;;20.53;64.42;99807.69;2221922;40;20033;-86
2021/06/27 00:05:31;;;;;;;10.73;8.77;;;;;;;20.53;64.37;99802.28;2222369;40;20017;-85
2021/06/27 00:07:04;;;;;;;12.32;9.00;;;;;;;20.50;64.52;99808.16;2222224;40;20456;-87
2021/06/27 00:08:36;;;;;;;13.23;9.10;;;;;;;20.44;64.38;99803.56;2222136;40;20029;-85
2021/06/27 00:10:11;;;;;;;11.57;7.97;;;;;;;20.43;64.87;99802.75;2221570;40;20026;-87
2021/06/27 00:11:43;;;;;;;12.23;7.40;;;;;;;20.40;64.70;99803.97;2221804;40;20084;-84
2021/06/27 00:13:15;;;;;;;10.95;7.75;;;;;;;20.42;64.86;99801.06;2221977;40;20085;-85
2021/06/27 00:14:47;;;;;;;8.77;7.88;;;;;;;20.42;64.73;99807.31;2218885;40;20097;-87
2021/06/27 00:16:20;;;;;;;10.38;8.77;;;;;;;20.44;64.51;99809.84;2222410;40;20017;-85
2021/06/27 00:17:53;;;;;;;9.80;8.80;;;;;;;20.38;64.50;99803.41;2222862;40;20574;-85
2021/06/27 00:19:25;;;;;;;8.55;7.45;;;;;;;20.36;64.46;99796.50;2222187;40;20026;-86
2021/06/27 00:20:59;;;;;;;9.85;8.05;;;;;;;20.34;64.52;99794.00;2215791;40;20034;-82
2021/06/27 00:22:30;;;;;;;9.10;7.88;;;;;;;20.34;64.47;99796.72;2217884;40;20029;-82
2021/06/27 00:24:03;;;;;;;11.35;8.27;;;;;;;20.27;64.62;99794.03;2218510;40;20041;-81
2021/06/27 00:25:35;;;;;;;9.75;8.38;;;;;;;20.24;64.91;99794.47;2224334;40;20045;-82
2021/06/27 00:27:07;;;;;;;10.15;8.00;;;;;;;20.23;64.81;99791.94;2224339;40;20039;-83
2021/06/27 00:28:41;;;;;;;11.10;8.43;;;;;;;20.22;65.05;99791.13;2226276;40;20516;-82
2021/06/27 00:30:14;;;;;;;9.23;8.23;;;;;;;20.18;65.08;99789.88;2226654;40;20033;-83
2021/06/27 00:31:47;;;;;;;9.10;7.20;;;;;;;20.20;64.74;99792.41;2228045;40;20025;-82
2021/06/27 00:33:19;;;;;;;9.88;7.20;;;;;;;20.22;64.94;99795.72;2229407;40;20059;-83
2021/06/27 00:34:51;;;;;;;9.70;6.70;;;;;;;20.26;64.87;99796.97;2226309;40;20018;-86
2021/06/27 00:36:23;;;;;;;10.45;7.57;;;;;;;20.28;64.47;99803.00;2228288;40;20089;-85
2021/06/27 00:37:55;;;;;;;10.73;7.47;;;;;;;20.25;64.12;99800.72;2228331;40;20168;-85
2021/06/27 00:39:27;;;;;;;9.13;7.18;;;;;;;20.23;64.32;99808.22;2228286;40;20025;-86
2021/06/27 00:40:59;;;;;;;9.35;7.72;;;;;;;20.23;64.32;99806.38;2228682;40;20044;-85
2021/06/27 00:42:29;;;;;;;10.05;8.27;;;;;;;20.24;64.75;99801.75;2228697;40;20017;-87
2021/06/27 00:44:01;;;;;;;8.93;7.57;;;;;;;20.18;64.44;99805.34;2228866;40;20036;-86
2021/06/27 00:45:35;;;;;;;10.27;7.10;;;;;;;20.15;64.24;99800.34;2228010;40;20025;-84
2021/06/27 00:47:07;;;;;;;12.65;8.25;;;;;;;20.13;63.93;99797.00;2228266;40;20037;-83
2021/06/27 00:48:39;;;;;;;10.57;7.65;;;;;;;20.08;64.18;99795.78;2222358;40;20128;-84
2021/06/27 00:50:13;;;;;;;10.25;7.28;;;;;;;20.07;64.08;99787.84;2222337;40;20034;-85
2021/06/27 00:51:45;;;;;;;8.88;7.57;;;;;;;20.04;64.40;99782.84;2222281;40;20029;-85
2021/06/27 00:53:17;;;;;;;12.25;8.23;;;;;;;20.04;64.41;99780.94;2222299;40;20472;-82
2021/06/27 00:54:48;;;;;;;8.43;7.00;;;;;;;19.99;64.81;99780.78;2221672;40;20057;-83
2021/06/27 00:56:20;;;;;;;11.85;7.45;;;;;;;19.99;64.58;99780.78;2215698;40;20026;-78
2021/06/27 00:57:52;;;;;;;8.98;7.22;;;;;;;20.01;64.19;99784.13;2216245;40;20509;-80
2021/06/27 00:59:27;;;;;;;7.90;6.53;;;;;;;20.03;64.18;99782.00;2219735;40;20024;-80
2021/06/27 01:00:58;;;;;;;9.27;6.75;;;;;;;20.08;63.98;99784.91;2221145;40;20040;-80
2021/06/27 01:02:32;;;;;;;8.35;6.43;;;;;;;20.13;63.74;99792.41;2221843;40;20086;-81
2021/06/27 01:04:04;;;;;;;9.20;6.95;;;;;;;20.15;63.68;99797.63;2221792;40;20018;-81
2021/06/27 01:05:38;;;;;;;8.07;7.07;;;;;;;20.14;63.95;99798.66;2227497;40;20046;-80
2021/06/27 01:07:11;;;;;;;8.15;7.07;;;;;;;20.07;63.89;99804.97;2221382;40;20044;-82
2021/06/27 01:08:43;;;;;;;9.45;7.90;;;;;;;19.98;64.66;99806.22;2221484;40;20033;-80
2021/06/27 01:10:15;;;;;;;11.55;8.48;;;;;;;19.86;65.40;99821.47;2221640;40;20041;-81
2021/06/27 01:11:47;;;;;;;9.27;7.82;;;;;;;19.74;66.12;99822.09;2221412;40;20065;-82
2021/06/27 01:13:21;;;;;;;10.68;8.27;;;;;;;19.64;66.54;99829.84;2213959;40;20215;-82
2021/06/27 01:14:54;;;;;;;11.95;8.48;;;;;;;19.57;67.26;99826.28;2212747;40;20033;-81
2021/06/27 01:16:26;;;;;;;9.60;7.88;;;;;;;19.44;67.54;99827.13;2213620;40;20130;-82
2021/06/27 01:17:59;;;;;;;13.35;9.32;;;;;;;19.37;68.07;99832.53;2215735;40;20042;-86
2021/06/27 01:19:33;;;;;;;9.68;7.88;;;;;;;19.33;68.34;99836.72;2216711;40;20015;-86
2021/06/27 01:21:07;;;;;;;12.48;9.25;;;;;;;19.30;68.46;99835.25;2206484;40;20030;-86
2021/06/27 01:22:39;;;;;;;12.20;8.57;;;;;;;19.24;68.74;99838.78;2214458;40;20026;-83
2021/06/27 01:24:11;;;;;;;10.00;8.32;;;;;;;19.17;68.89;99838.78;2214070;40;20030;-84
2021/06/27 01:25:46;;;;;;;12.65;8.25;;;;;;;19.09;69.39;99838.16;2219878;40;20045;-84
2021/06/27 01:27:17;;;;;;;11.13;8.82;;;;;;;19.04;69.87;99835.19;2219887;40;20033;-83
2021/06/27 01:28:48;;;;;;;8.18;6.93;;;;;;;19.02;69.82;99838.13;2219886;40;20064;-84
2021/06/27 01:30:21;;;;;;;9.82;7.15;;;;;;;19.07;69.59;99829.38;2219662;40;20044;-85
2021/06/27 01:31:53;;;;;;;9.80;8.38;;;;;;;19.14;69.52;99825.66;2218613;40;20100;-83
2021/06/27 01:33:25;;;;;;;11.77;7.07;;;;;;;19.17;69.50;99827.97;2218298;40;20073;-82
2021/06/27 01:34:56;;;;;;;8.52;7.05;;;;;;;19.24;69.54;99824.41;2224567;40;20040;-81
2021/06/27 01:36:29;;;;;;;9.32;7.57;;;;;;;19.25;69.19;99824.19;2220414;40;20029;-82
2021/06/27 01:38:01;;;;;;;12.90;9.63;;;;;;;19.27;69.43;99826.72;2219445;40;20033;-82
2021/06/27 01:39:34;;;;;;;10.38;8.02;;;;;;;19.20;69.62;99832.13;2219180;40;20155;-81
2021/06/27 01:41:07;;;;;;;9.52;7.57;;;;;;;19.20;69.67;99833.97;2219691;40;20045;-81
2021/06/27 01:42:38;;;;;;;10.05;7.50;;;;;;;19.22;69.65;99831.91;2221947;40;20041;-81
2021/06/27 01:44:10;;;;;;;13.88;9.20;;;;;;;19.22;69.73;99826.50;2226013;40;20029;-84
2021/06/27 01:45:45;;;;;;;9.90;8.52;;;;;;;19.17;69.67;99830.66;2226212;40;20041;-85
2021/06/27 01:47:16;;;;;;;12.48;8.38;;;;;;;19.13;69.76;99826.69;2226963;40;20040;-85
2021/06/27 01:48:48;;;;;;;10.55;8.45;;;;;;;19.11;69.97;99827.94;2226832;40;20037;-85
2021/06/27 01:50:19;;;;;;;10.50;9.20;;;;;;;19.11;70.03;99826.06;2227188;40;20033;-85
2021/06/27 01:51:52;;;;;;;11.18;9.15;;;;;;;19.09;70.11;99825.41;2227276;40;20040;-86
2021/06/27 01:53:27;;;;;;;10.07;8.38;;;;;;;19.09;70.15;99825.41;2227338;40;20029;-85
2021/06/27 01:54:57;;;;;;;11.77;8.75;;;;;;;19.11;70.29;99828.75;2226040;40;20029;-85
2021/06/27 01:56:29;;;;;;;14.13;8.80;;;;;;;19.09;70.11;99828.13;2226203;40;20029;-84
2021/06/27 01:58:01;;;;;;;11.10;7.47;;;;;;;19.07;70.07;99827.53;2226284;40;20233;-85
2021/06/27 01:59:32;;;;;;;9.10;7.95;;;;;;;19.06;70.27;99835.84;2226315;40;20017;-85
2021/06/27 02:01:07;;;;;;;11.15;7.85;;;;;;;19.02;70.17;99830.84;2226292;40;20041;-84
2021/06/27 02:02:38;;;;;;;12.38;8.80;;;;;;;19.01;70.59;99828.31;2225961;40;20472;-82
2021/06/27 02:04:10;;;;;;;10.52;8.60;;;;;;;19.00;70.60;99832.06;2224333;40;20037;-82
2021/06/27 02:05:42;;;;;;;8.95;7.35;;;;;;;18.96;70.61;99831.66;2227453;40;20372;-87
2021/06/27 02:07:15;;;;;;;10.60;8.43;;;;;;;18.98;70.62;99834.19;2227397;40;20037;-86
2021/06/27 02:08:48;;;;;;;8.82;7.05;;;;;;;18.90;70.87;99828.88;2228309;40;20025;-85
2021/06/27 02:10:21;;;;;;;9.52;7.47;;;;;;;18.86;70.84;99829.31;2208957;40;20050;-86
2021/06/27 02:11:52;;;;;;;9.25;8.18;;;;;;;18.86;71.15;99828.47;2220531;40;20090;-84
2021/06/27 02:13:24;;;;;;;9.85;7.95;;;;;;;18.85;70.83;99827.66;2225534;40;20025;-84
2021/06/27 02:14:55;;;;;;;13.70;7.72;;;;;;;18.85;71.17;99833.06;2225907;40;20057;-84
2021/06/27 02:16:27;;;;;;;10.95;8.02;;;;;;;18.83;71.02;99828.91;2226090;40;20029;-84
2021/06/27 02:18:17;;;;;;;8.48;7.05;;;;;;;18.77;71.17;99833.25;2226475;40;20033;-85
2021/06/27 02:19:53;;;;;;;8.77;7.53;;;;;;;18.73;71.52;99831.97;2219404;40;20060;-84
2021/06/27 02:21:27;;;;;;;9.25;7.68;;;;;;;18.73;71.43;99834.69;2219878;40;20213;-84
2021/06/27 02:23:00;;;;;;;11.20;7.22;;;;;;;18.72;71.63;99830.31;2220154;40;20551;-83
2021/06/27 02:24:32;;;;;;;10.40;8.80;;;;;;;18.67;71.52;99821.97;2220458;40;20042;-84
2021/06/27 02:26:04;;;;;;;9.13;7.78;;;;;;;18.66;71.76;99831.13;2220405;40;21689;-83
2021/06/27 02:27:36;;;;;;;11.77;8.38;;;;;;;18.63;71.93;99826.13;2224484;40;20033;-85
2021/06/27 02:29:07;;;;;;;7.90;6.88;;;;;;;18.60;71.72;99831.97;2224525;40;20021;-82
2021/06/27 02:30:39;;;;;;;9.10;7.32;;;;;;;18.60;71.98;99829.25;2224263;40;20052;-83
2021/06/27 02:32:11;;;;;;;8.82;7.03;;;;;;;18.60;71.70;99821.94;2224561;40;20033;-83
2021/06/27 02:33:42;;;;;;;10.30;6.88;;;;;;;18.60;71.57;99823.84;2224611;40;20049;-83
2021/06/27 02:35:15;;;;;;;8.35;7.07;;;;;;;18.63;71.52;99821.56;2224787;40;20036;-83
2021/06/27 02:36:47;;;;;;;11.93;7.72;;;;;;;18.65;71.70;99824.03;2221634;40;20038;-82
2021/06/27 02:38:20;;;;;;;9.85;7.50;;;;;;;18.63;71.56;99820.69;2223946;40;20048;-83
2021/06/27 02:39:52;;;;;;;9.23;7.28;;;;;;;18.60;71.79;99823.84;2224519;40;20032;-83
2021/06/27 02:41:24;;;;;;;10.73;7.72;;;;;;;18.62;71.56;99824.44;2223363;40;20033;-82
2021/06/27 02:42:55;;;;;;;11.35;7.30;;;;;;;18.66;71.35;99817.59;2222259;40;20025;-80
2021/06/27 02:44:27;;;;;;;9.77;7.75;;;;;;;18.70;71.61;99818.88;2226526;40;20469;-84
2021/06/27 02:45:59;;;;;;;11.68;7.95;;;;;;;18.69;71.32;99819.91;2227435;40;20529;-85
2021/06/27 02:47:30;;;;;;;11.13;7.70;;;;;;;18.66;71.63;99810.28;2227940;40;20040;-85
2021/06/27 02:49:02;;;;;;;12.55;7.93;;;;;;;18.65;71.56;99807.81;2225734;40;20044;-81
2021/06/27 02:50:35;;;;;;;10.70;7.75;;;;;;;18.64;71.52;99801.56;2224459;40;20024;-82
2021/06/27 02:52:07;;;;;;;9.20;7.03;;;;;;;18.64;71.59;99795.31;2224481;40;20057;-81
2021/06/27 02:53:40;;;;;;;9.43;7.85;;;;;;;18.64;71.82;99795.31;2224621;40;20061;-81
2021/06/27 02:55:12;;;;;;;13.73;9.55;;;;;;;18.52;71.95;99793.19;2224496;40;20091;-82
2021/06/27 02:56:44;;;;;;;12.43;10.20;;;;;;;18.38;72.46;99797.72;2223568;40;20017;-81
2021/06/27 02:58:16;;;;;;;10.15;8.82;;;;;;;18.28;72.99;99791.84;2225310;40;20029;-81
2021/06/27 02:59:48;;;;;;;11.30;8.48;;;;;;;18.24;73.40;99804.13;2226135;40;20581;-81
2021/06/27 03:01:20;;;;;;;11.20;8.18;;;;;;;18.22;73.29;99798.06;2225928;40;20033;-81
2021/06/27 03:02:51;;;;;;;10.90;8.75;;;;;;;18.22;73.25;99793.50;2225570;40;20044;-81
2021/06/27 03:04:23;;;;;;;9.98;7.40;;;;;;;18.31;72.97;99796.84;2229821;40;20052;-83
2021/06/27 03:05:53;;;;;;;10.35;7.82;;;;;;;18.36;72.68;99793.53;2232277;40;20032;-81
2021/06/27 03:07:25;;;;;;;11.30;9.20;;;;;;;18.38;72.71;99789.59;2228129;40;20033;-82
2021/06/27 03:09:08;;;;;;;10.73;8.18;;;;;;;18.35;72.51;99792.72;2227855;40;20309;-81
2021/06/27 03:10:41;;;;;;;10.05;8.65;;;;;;;18.38;72.55;99786.06;2221360;40;20029;-83
2021/06/27 03:12:12;;;;;;;8.80;7.57;;;;;;;18.36;72.61;99788.13;2220856;40;20045;-82
2021/06/27 03:13:44;;;;;;;13.50;8.95;;;;;;;18.34;72.57;99779.38;2221643;40;20026;-83
2021/06/27 03:15:18;;;;;;;9.88;8.32;;;;;;;18.27;72.77;99776.66;2221596;40;20661;-82
2021/06/27 03:16:50;;;;;;;13.43;9.40;;;;;;;18.22;72.96;99771.88;2225578;40;20085;-80
2021/06/27 03:18:22;;;;;;;11.15;8.88;;;;;;;18.18;73.22;99784.09;2227431;40;20033;-80
2021/06/27 03:19:54;;;;;;;11.18;9.43;;;;;;;18.16;73.37;99783.47;2228245;40;20021;-81
2021/06/27 03:21:26;;;;;;;13.43;9.35;;;;;;;18.17;73.42;99782.44;2215292;40;20030;-83
2021/06/27 03:22:57;;;;;;;13.75;10.25;;;;;;;18.11;73.56;99779.69;2196440;40;20039;-82
2021/06/27 03:24:30;;;;;;;13.10;9.82;;;;;;;18.08;73.48;99773.69;2204137;40;20045;-82
2021/06/27 03:26:02;;;;;;;12.07;8.88;;;;;;;18.08;73.54;99780.94;2205886;40;20387;-82
2021/06/27 03:27:33;;;;;;;10.55;8.23;;;;;;;18.13;73.32;99769.50;2208048;40;20500;-83
2021/06/27 03:29:05;;;;;;;9.40;7.20;;;;;;;18.18;73.27;99767.06;2210336;40;20038;-82
2021/06/27 03:30:37;;;;;;;11.48;8.48;;;;;;;18.28;73.09;99769.38;2218891;40;20044;-82
2021/06/27 03:32:09;;;;;;;11.18;7.82;;;;;;;18.29;72.95;99763.75;2224337;40;20041;-83
2021/06/27 03:33:41;;;;;;;9.60;7.07;;;;;;;18.34;72.78;99768.56;2226107;40;20064;-86
2021/06/27 03:35:12;;;;;;;9.35;7.30;;;;;;;18.37;72.64;99765.44;2228180;40;20111;-85
2021/06/27 03:36:44;;;;;;;9.45;7.63;;;;;;;18.38;72.76;99759.00;2228417;40;20037;-87
2021/06/27 03:38:20;;;;;;;10.55;8.27;;;;;;;18.42;72.41;99759.44;2221821;40;20037;-86
2021/06/27 03:39:53;;;;;;;11.57;8.63;;;;;;;18.40;72.41;99770.47;2220538;40;20040;-85
2021/06/27 03:41:25;;;;;;;10.32;7.68;;;;;;;18.38;72.51;99764.41;2222530;40;20033;-88
2021/06/27 03:42:59;;;;;;;9.52;8.00;;;;;;;18.41;72.34;99766.72;2222699;40;20177;-84
2021/06/27 03:44:32;;;;;;;10.95;8.18;;;;;;;18.43;72.48;99756.50;2219801;40;20046;-85
2021/06/27 03:46:03;;;;;;;9.63;6.95;;;;;;;18.45;72.08;99759.03;2220914;40;20049;-85
2021/06/27 03:47:35;;;;;;;9.13;7.13;;;;;;;18.44;72.23;99754.66;2222542;40;20033;-86
2021/06/27 03:49:07;;;;;;;8.05;6.57;;;;;;;18.44;72.13;99752.78;2222694;40;20094;-84
2021/06/27 03:50:38;;;;;;;8.95;7.35;;;;;;;18.46;72.18;99755.28;2221664;40;20029;-85
2021/06/27 03:52:10;;;;;;;8.27;6.55;;;;;;;18.46;71.77;99753.41;2222062;40;20037;-85
2021/06/27 03:53:42;;;;;;;10.55;8.95;;;;;;;18.42;71.86;99754.84;2221864;40;20279;-85
2021/06/27 03:55:16;;;;;;;10.55;7.90;;;;;;;18.43;72.04;99745.69;2221726;40;20025;-85
2021/06/27 03:56:47;;;;;;;10.32;8.60;;;;;;;18.42;71.64;99741.31;2221314;40;20072;-86
2021/06/27 03:58:19;;;;;;;10.98;8.50;;;;;;;18.38;71.91;99732.78;2222142;40;20568;-86
2021/06/27 03:59:50;;;;;;;10.07;7.63;;;;;;;18.37;72.12;99724.88;2221495;40;20061;-85
2021/06/27 04:01:22;;;;;;;9.95;8.55;;;;;;;18.37;71.87;99724.88;2226852;40;20025;-84
2021/06/27 04:02:54;;;;;;;9.68;8.15;;;;;;;18.36;71.99;99720.50;2227368;40;20041;-81
2021/06/27 04:04:26;;;;;;;18.52;10.55;;;;;;;18.32;71.63;99721.94;2227164;40;20025;-84
2021/06/27 04:05:57;;;;;;;11.95;9.60;;;;;;;18.26;72.12;99723.59;2226747;40;20029;-82
2021/06/27 04:07:28;;;;;;;9.68;8.05;;;;;;;18.27;71.87;99727.13;2225164;40;20025;-82
2021/06/27 04:09:00;;;;;;;10.60;8.32;;;;;;;18.33;72.07;99729.00;2217497;40;20069;-81
2021/06/27 04:10:34;;;;;;;10.27;7.75;;;;;;;18.38;71.81;99731.94;2221746;40;20094;-81
2021/06/27 04:12:06;;;;;;;8.32;6.78;;;;;;;18.47;71.39;99738.00;2227079;40;20055;-80
2021/06/27 04:13:38;;;;;;;9.57;7.13;;;;;;;18.52;71.15;99738.22;2229983;40;20050;-81
2021/06/27 04:15:11;;;;;;;8.60;6.30;;;;;;;18.60;70.84;99742.63;2231140;40;20036;-82
2021/06/27 04:16:44;;;;;;;7.78;6.10;;;;;;;18.65;70.59;99748.25;2229954;40;20040;-82
2021/06/27 04:18:15;;;;;;;8.77;6.85;;;;;;;18.69;70.35;99744.09;2231820;40;20040;-80
2021/06/27 04:19:46;;;;;;;9.05;7.00;;;;;;;18.72;70.34;99746.38;2231608;40;20033;-83
2021/06/27 04:21:18;;;;;;;10.60;8.27;;;;;;;18.73;70.29;99749.94;2229149;40;20025;-80
2021/06/27 04:22:49;;;;;;;8.52;7.35;;;;;;;18.71;70.34;99747.41;2231331;40;20496;-84
2021/06/27 04:24:21;;;;;;;10.32;9.05;;;;;;;18.67;69.72;99746.19;2233101;40;20024;-81
2021/06/27 04:25:54;;;;;;;9.70;7.43;;;;;;;18.72;69.67;99754.50;2231857;40;20044;-83
2021/06/27 04:27:25;;;;;;;9.68;7.78;;;;;;;18.74;69.05;99760.56;2233775;40;20144;-83
2021/06/27 04:28:57;;;;;;;10.20;6.95;;;;;;;18.74;69.21;99760.56;2220405;40;20040;-82
2021/06/27 04:30:29;;;;;;;8.90;6.75;;;;;;;18.79;68.67;99763.50;2219206;40;20083;-82
2021/06/27 04:32:02;;;;;;;8.43;6.80;;;;;;;18.86;68.74;99760.78;2231121;40;20111;-85
2021/06/27 04:33:34;;;;;;;8.57;7.05;;;;;;;18.92;69.01;99764.53;2232931;40;20463;-82
2021/06/27 04:35:07;;;;;;;9.30;7.40;;;;;;;18.89;69.20;99762.25;2231780;40;20483;-82
2021/06/27 04:36:39;;;;;;;10.27;7.28;;;;;;;18.88;69.17;99763.28;2232317;40;20437;-84
2021/06/27 04:38:14;;;;;;;11.43;8.05;;;;;;;18.86;69.09;99761.63;2231004;40;20055;-80
2021/06/27 04:39:46;;;;;;;9.55;6.90;;;;;;;18.91;69.11;99777.25;2229944;40;20063;-81
2021/06/27 04:41:19;;;;;;;11.02;8.77;;;;;;;18.91;69.10;99762.84;2228969;40;20044;-80
2021/06/27 04:42:51;;;;;;;10.73;7.07;;;;;;;18.92;69.21;99764.53;2235714;40;20037;-80
2021/06/27 04:44:23;;;;;;;9.43;7.40;;;;;;;19.00;68.79;99772.50;2234023;40;20028;-80
2021/06/27 04:45:55;;;;;;;11.48;7.00;;;;;;;19.04;68.71;99772.91;2229397;40;20059;-79
2021/06/27 04:47:26;;;;;;;8.23;6.95;;;;;;;19.08;68.55;99774.16;2233920;40;20043;-80
2021/06/27 04:48:58;;;;;;;9.27;7.45;;;;;;;19.07;68.45;99781.47;2229303;40;20037;-80
2021/06/27 04:50:29;;;;;;;8.73;7.43;;;;;;;19.05;68.62;99778.13;2226783;40;20037;-80
2021/06/27 04:52:01;;;;;;;10.60;7.07;;;;;;;18.98;68.90;99783.53;2229504;40;20028;-80
2021/06/27 04:53:33;;;;;;;7.70;5.85;;;;;;;18.99;68.98;99781.66;2229306;40;20036;-80
2021/06/27 04:55:05;;;;;;;9.55;6.57;;;;;;;19.04;68.87;99783.72;2229878;40;20448;-81
2021/06/27 04:56:39;;;;;;;10.77;7.70;;;;;;;19.10;68.86;99778.34;2230878;40;20032;-82
2021/06/27 04:58:10;;;;;;;9.68;6.82;;;;;;;19.11;68.69;99780.00;2231601;40;20028;-83
2021/06/27 04:59:41;;;;;;;10.82;7.05;;;;;;;19.15;68.57;99788.53;2230718;40;20020;-82
2021/06/27 05:01:13;;;;;;;10.40;7.95;;;;;;;19.13;68.30;99787.91;2225408;40;20025;-83
2021/06/27 05:02:46;;;;;;;7.95;6.22;;;;;;;19.13;68.65;99796.03;2230256;40;20025;-81
2021/06/27 05:04:17;;;;;;;9.50;7.00;;;;;;;19.14;68.31;99781.47;2229589;40;20033;-80
2021/06/27 05:05:49;;;;;;;9.02;7.32;;;;;;;19.17;68.22;99778.34;2229331;40;20096;-81
2021/06/27 05:07:21;;;;;;;9.13;6.72;;;;;;;19.17;68.01;99783.75;2226022;40;20036;-82
2021/06/27 05:08:53;;;;;;;8.93;6.90;;;;;;;19.18;68.37;99780.84;2224116;40;20079;-81
2021/06/27 05:10:25;;;;;;;8.05;6.78;;;;;;;19.19;68.41;99781.69;2223495;40;20448;-82
2021/06/27 05:11:58;;;;;;;7.63;5.93;;;;;;;19.18;68.34;99780.84;2228600;40;20024;-80
2021/06/27 05:13:30;;;;;;;8.98;6.78;;;;;;;19.20;68.39;99782.50;2229506;40;20036;-81
2021/06/27 05:15:02;;;;;;;9.32;6.90;;;;;;;19.24;68.36;99778.34;2229346;40;20025;-80
2021/06/27 05:16:34;;;;;;;9.40;6.53;;;;;;;19.30;68.21;99785.63;2228579;40;20195;-80
2021/06/27 05:18:06;;;;;;;8.57;6.72;;;;;;;19.37;68.07;99785.63;2228965;40;20036;-81
2021/06/27 05:19:38;;;;;;;12.27;6.80;;;;;;;19.42;67.68;99783.13;2229199;40;20440;-81
2021/06/27 05:21:10;;;;;;;7.45;5.57;;;;;;;19.43;67.68;99780.22;2229965;40;20305;-80
2021/06/27 05:22:42;;;;;;;8.52;6.68;;;;;;;19.48;67.44;99785.84;2229749;40;20029;-81
2021/06/27 05:24:14;;;;;;;8.30;6.55;;;;;;;19.52;67.46;99780.00;2230192;40;20029;-81
2021/06/27 05:25:46;;;;;;;8.10;6.35;;;;;;;19.47;67.77;99776.03;2228955;40;20049;-81
2021/06/27 05:27:19;;;;;;;9.13;6.85;;;;;;;19.52;67.49;99766.44;2224187;40;20064;-80
2021/06/27 05:28:50;;;;;;;9.00;6.25;;;;;;;19.57;67.33;99763.94;2229781;40;20037;-81
2021/06/27 05:30:22;;;;;;;10.02;8.30;;;;;;;19.54;67.44;99756.22;2230809;40;20043;-82
2021/06/27 05:31:53;;;;;;;12.07;8.38;;;;;;;19.40;67.42;99750.00;2230850;40;20341;-81
2021/06/27 05:33:25;;;;;;;13.13;8.88;;;;;;;19.29;67.70;99740.59;2232317;40;20052;-86
2021/06/27 05:34:57;;;;;;;11.40;8.23;;;;;;;19.21;68.14;99751.66;2233592;40;20052;-84
2021/06/27 05:36:28;;;;;;;10.52;8.60;;;;;;;19.14;68.39;99741.66;2232144;40;20026;-83
2021/06/27 05:38:00;;;;;;;10.48;7.63;;;;;;;19.18;68.12;99742.91;2231874;40;20434;-81
2021/06/27 05:39:31;;;;;;;9.38;7.38;;;;;;;19.25;68.30;99747.50;2231134;40;20032;-84
2021/06/27 05:41:02;;;;;;;11.13;7.75;;;;;;;19.30;68.15;99745.84;2231634;40;20032;-84
2021/06/27 05:42:35;;;;;;;10.68;7.90;;;;;;;19.34;67.91;99740.81;2231539;40;20469;-83
2021/06/27 05:44:08;;;;;;;10.18;8.25;;;;;;;19.35;67.52;99745.22;2232264;40;20029;-84
2021/06/27 05:45:39;;;;;;;9.55;7.28;;;;;;;19.39;67.89;99748.31;2231791;40;20039;-81
2021/06/27 05:47:11;;;;;;;11.00;8.20;;;;;;;19.48;67.27;99741.66;2229992;40;20035;-81
2021/06/27 05:48:43;;;;;;;8.55;7.57;;;;;;;19.49;66.91;99752.25;2228039;40;20032;-81
2021/06/27 05:50:15;;;;;;;9.25;7.13;;;;;;;19.52;66.72;99742.06;2229421;40;20056;-81
2021/06/27 05:51:46;;;;;;;8.75;6.45;;;;;;;19.62;66.69;99742.44;2229567;40;20020;-82
2021/06/27 05:53:18;;;;;;;7.80;6.25;;;;;;;19.72;66.23;99729.28;2229078;40;20029;-80
2021/06/27 05:54:50;;;;;;;9.18;7.30;;;;;;;19.86;65.89;99731.97;2229102;40;20028;-81
2021/06/27 05:56:23;;;;;;;12.05;8.10;;;;;;;19.93;65.73;99732.81;2230228;40;20032;-81
2021/06/27 05:57:56;;;;;;;9.88;7.50;;;;;;;19.95;65.50;99736.13;2228263;40;20029;-82
2021/06/27 05:59:27;;;;;;;8.98;7.65;;;;;;;20.01;65.21;99729.00;2231574;40;20016;-83
2021/06/27 06:00:59;;;;;;;8.82;7.10;;;;;;;20.12;65.05;99735.66;2232015;40;20048;-83
2021/06/27 06:02:30;;;;;;;9.27;6.18;;;;;;;20.24;64.76;99736.63;2237885;40;20028;-83
2021/06/27 06:04:03;;;;;;;10.57;7.20;;;;;;;20.35;64.99;99730.53;2239349;40;20097;-85
2021/06/27 06:05:35;;;;;;;9.93;7.45;;;;;;;20.42;64.64;99727.78;2232118;40;20062;-80
2021/06/27 06:07:06;;;;;;;10.55;6.15;;;;;;;20.49;64.69;99725.84;2229437;40;20040;-79
2021/06/27 06:08:40;;;;;;;7.25;5.70;;;;;;;20.60;64.25;99727.03;2228717;40;20043;-82
2021/06/27 06:10:12;;;;;;;7.93;5.97;;;;;;;20.66;63.54;99720.75;2230784;40;20039;-80
2021/06/27 06:11:46;;;;;;;8.90;5.93;;;;;;;20.73;62.88;99729.69;2231563;40;20029;-80
2021/06/27 06:13:18;;;;;;;7.10;5.57;;;;;;;20.79;62.64;99735.28;2228834;40;20024;-81
2021/06/27 06:14:50;;;;;;;7.65;5.60;;;;;;;20.80;62.24;99731.53;2230341;40;20036;-80
2021/06/27 06:16:23;;;;;;;8.30;6.05;;;;;;;20.82;62.41;99727.56;2229779;40;20393;-81
2021/06/27 06:17:55;;;;;;;6.88;5.15;;;;;;;20.84;62.39;99730.06;2230422;40;20033;-81
2021/06/27 06:19:27;;;;;;;7.22;5.65;;;;;;;20.87;62.30;99735.06;2230216;40;20057;-82
2021/06/27 06:21:00;;;;;;;6.72;5.20;;;;;;;20.93;62.17;99736.03;2224725;40;20041;-81
2021/06/27 06:22:33;;;;;;;7.78;6.78;;;;;;;21.02;61.84;99731.97;2226032;40;21016;-83
2021/06/27 06:24:05;;;;;;;11.00;6.35;;;;;;;21.03;61.78;99725.50;2230383;40;20052;-81
2021/06/27 06:25:37;;;;;;;6.97;5.75;;;;;;;21.07;61.57;99737.59;2229085;40;20025;-80
2021/06/27 06:27:09;;;;;;;8.15;5.65;;;;;;;21.14;61.49;99732.94;2225649;40;20441;-83
2021/06/27 06:28:43;;;;;;;7.93;5.35;;;;;;;21.24;61.32;99737.88;2229346;40;20112;-81
2021/06/27 06:30:17;;;;;;;6.93;5.43;;;;;;;21.29;61.08;99738.03;2225470;40;20399;-80
2021/06/27 06:31:48;;;;;;;9.05;5.70;;;;;;;21.34;60.68;99731.94;2228240;40;20036;-82
2021/06/27 06:33:20;;;;;;;7.53;5.95;;;;;;;21.38;60.88;99732.31;2232126;40;20033;-83
2021/06/27 06:34:52;;;;;;;7.70;5.45;;;;;;;21.42;60.63;99728.91;2228894;40;20472;-80
2021/06/27 06:36:23;;;;;;;6.40;4.57;;;;;;;21.45;60.39;99735.78;2219651;40;20034;-80
2021/06/27 06:37:54;;;;;;;6.70;5.18;;;;;;;21.49;60.37;99735.13;2226044;40;20663;-81
2021/06/27 06:39:26;;;;;;;5.97;5.05;;;;;;;21.56;60.43;99732.34;2223261;40;20044;-79
2021/06/27 06:40:57;;;;;;;8.90;5.88;;;;;;;21.65;60.46;99728.31;2224982;40;20048;-81
2021/06/27 06:42:29;;;;;;;8.93;6.22;;;;;;;21.72;59.69;99730.13;2223133;40;20040;-80
2021/06/27 06:44:01;;;;;;;9.93;5.28;;;;;;;21.75;59.80;99735.94;2218576;40;20036;-81
2021/06/27 06:45:34;;;;;;;10.00;5.97;;;;;;;21.71;59.34;99736.63;2222928;40;20029;-81
2021/06/27 06:47:06;;;;;;;7.57;5.97;;;;;;;21.77;59.22;99736.53;2223467;40;20037;-81
2021/06/27 06:48:38;;;;;;;7.18;4.82;;;;;;;21.92;59.19;99725.28;2220388;40;20034;-81
2021/06/27 06:50:10;;;;;;;9.82;6.00;;;;;;;22.04;59.01;99729.97;2223102;40;20021;-81
2021/06/27 06:51:42;;;;;;;8.77;6.32;;;;;;;22.14;58.96;99724.81;2223544;40;20049;-81
2021/06/27 06:53:13;;;;;;;8.35;5.50;;;;;;;22.27;58.45;99730.09;2223495;40;20045;-82
2021/06/27 06:54:44;;;;;;;9.10;6.72;;;;;;;22.37;58.60;99723.25;2224035;40;20103;-81
2021/06/27 06:56:15;;;;;;;10.07;6.22;;;;;;;22.43;58.27;99722.38;2223275;40;20045;-81
2021/06/27 06:57:48;;;;;;;6.93;5.68;;;;;;;22.43;58.26;99723.19;2224448;40;20033;-83
2021/06/27 06:59:21;;;;;;;9.85;5.30;;;;;;;22.53;57.90;99714.47;2223373;40;20045;-83
2021/06/27 07:00:53;;;;;;;6.30;5.00;;;;;;;22.67;57.72;99717.00;2223979;40;20021;-82
2021/06/27 07:02:25;;;;;;;6.13;4.60;;;;;;;22.90;57.22;99721.69;2220079;40;20046;-83
2021/06/27 07:03:57;;;;;;;6.30;4.93;;;;;;;23.08;56.88;99723.47;2225151;40;20293;-82
2021/06/27 07:05:28;;;;;;;8.32;5.00;;;;;;;23.09;56.63;99716.94;2224004;40;20029;-83
2021/06/27 07:07:01;;;;;;;7.25;5.40;;;;;;;23.14;56.30;99716.25;2223565;40;20340;-81
2021/06/27 07:08:33;;;;;;;7.22;5.28;;;;;;;23.25;55.95;99722.78;2222933;40;20021;-82
2021/06/27 07:10:05;;;;;;;7.57;4.95;;;;;;;23.33;55.71;99720.56;2222591;40;20041;-81
2021/06/27 07:11:37;;;;;;;6.38;5.03;;;;;;;23.46;55.38;99716.75;2224332;40;20108;-82